Stations météo

Publicité
Dunstaffnage, Grande-Bretagne (99006): Température de l'air & dewpoint: 03.07.2020 16:00:00 - 09.07.2020 16:00:00 (BST)Dunstaffnage, Grande-Bretagne (99006): Température de l'air -20cm: 03.07.2020 16:00:00 - 09.07.2020 16:00:00 (BST)Dunstaffnage, Grande-Bretagne (99006): Vitesse du vent & gusts: 03.07.2020 16:00:00 - 09.07.2020 16:00:00 (BST)Dunstaffnage, Grande-Bretagne (99006): Direction du vent: 03.07.2020 16:00:00 - 09.07.2020 16:00:00 (BST)Dunstaffnage, Grande-Bretagne (99006): Quantités de précipitations: 03.07.2020 16:00:00 - 09.07.2020 16:00:00 (BST)
Date & Time tt [°C] td [°C] tt -20cm [°C] ff [km/h] ff [knt] fx [km/h] fx [knt] dd rr [mm]
09.07.2020 16:00:00 - - - - - - - - 0,0
09.07.2020 15:00:00 15,4 8,6 - 18 10 - - W 0,0
09.07.2020 14:00:00 16,8 10,3 - 18 10 - - W 0,0
09.07.2020 13:00:00 17,2 10,2 - 15 8 - - W 0,0
09.07.2020 12:00:00 16,1 10,3 - 15 8 - - W 0,0
09.07.2020 11:00:00 15,7 10,8 - 11 6 - - W 0,0
09.07.2020 10:00:00 14,1 10,1 15,2 8 4 - - W 0,0
09.07.2020 09:00:00 12,6 9,7 - 4 2 - - W 0,0
09.07.2020 08:00:00 11,8 10,5 - 8 4 - - W 0,0
09.07.2020 07:00:00 10,8 10,7 - 4 2 - - W 0,0
09.07.2020 06:00:00 8,5 8,4 - 2 1 - - SSW 0,0
09.07.2020 05:00:00 7,5 7,2 - 2 1 - - WSW 0,0
09.07.2020 04:00:00 7,6 7,0 - 0 0 - - N 0,0
09.07.2020 03:00:00 8,7 7,8 - 2 1 - - WSW 0,0
09.07.2020 02:00:00 9,9 8,6 - 2 1 - - SSW 0,0
09.07.2020 01:00:00 11,9 9,8 - 4 2 - - SE 0,0
09.07.2020 00:00:00 11,8 9,7 - 2 1 - - S 0,0
08.07.2020 23:00:00 12,8 9,4 - 8 4 - - S 0,0
08.07.2020 22:00:00 13,6 9,5 - 5 3 - - SSW 0,0
08.07.2020 21:00:00 14,3 9,7 - 8 4 - - WSW 0,0
08.07.2020 20:00:00 15,2 9,3 - 5 3 - - WSW 0,0
08.07.2020 19:00:00 16,2 11,2 - 9 5 - - W 0,0
08.07.2020 18:00:00 16,5 10,5 - 11 6 - - W 0,0
08.07.2020 17:00:00 16,2 8,2 - 9 5 - - WSW 0,0
08.07.2020 16:00:00 16,7 9,0 - 11 6 - - W 0,0
08.07.2020 15:00:00 16,0 10,2 - 13 7 - - WSW 0,0
08.07.2020 14:00:00 16,6 10,6 - 13 7 - - W 0,0
08.07.2020 13:00:00 16,1 11,4 - 11 6 - - W 0,0
08.07.2020 12:00:00 14,7 10,6 - 8 4 - - WNW 0,0
08.07.2020 11:00:00 13,7 9,5 - 9 5 - - W 0,0
08.07.2020 10:00:00 12,6 9,4 14,7 8 4 - - NW 0,0
08.07.2020 09:00:00 12,6 11,8 - 5 3 - - ENE 0,0
08.07.2020 08:00:00 10,1 9,7 - 5 3 - - ENE 0,0
08.07.2020 07:00:00 9,0 8,6 - 8 4 - - ENE 0,0
08.07.2020 06:00:00 7,3 7,2 - 5 3 - - E 0,0
08.07.2020 05:00:00 5,6 5,2 - 0 0 - - N 0,0
08.07.2020 04:00:00 6,4 6,0 - 0 0 - - N 0,0
08.07.2020 03:00:00 6,9 6,3 - 0 0 - - N 0,0
08.07.2020 02:00:00 7,9 7,0 - 2 1 - - SW 0,0
08.07.2020 01:00:00 9,5 8,0 - 0 0 - - N 0,0
08.07.2020 00:00:00 10,2 8,9 - 4 2 - - NW 0,0
07.07.2020 23:00:00 11,1 8,8 - 5 3 - - WSW 0,0
07.07.2020 22:00:00 12,1 9,0 - 9 5 - - W 0,0
07.07.2020 21:00:00 14,7 8,4 - 8 4 - - WNW 0,0
07.07.2020 20:00:00 14,6 9,3 - 13 7 - - WSW 0,0
07.07.2020 19:00:00 15,8 8,8 - 11 6 - - WSW 0,0
07.07.2020 18:00:00 16,3 10,0 - 11 6 - - WSW 0,0
07.07.2020 17:00:00 15,6 9,0 - 13 7 - - W 0,0
07.07.2020 16:00:00 15,6 9,9 - 15 8 - - WSW 0,0
07.07.2020 15:00:00 16,9 12,7 - 18 10 - - W 0,0
07.07.2020 14:00:00 16,3 11,4 - 15 8 - - WSW 0,0
07.07.2020 13:00:00 15,8 10,6 - 9 5 - - W 0,0
07.07.2020 12:00:00 13,6 8,3 - 9 5 - - W 0,0
07.07.2020 11:00:00 12,8 10,1 - 5 3 - - SSW 0,0
07.07.2020 10:00:00 12,0 9,6 14,4 8 4 - - WSW 0,0
07.07.2020 09:00:00 11,3 9,8 - 5 3 - - WSW 0,0
07.07.2020 08:00:00 10,9 9,4 - 4 2 - - SW 0,0
07.07.2020 07:00:00 10,6 8,9 - 5 3 - - SW 0,0
07.07.2020 06:00:00 10,5 8,7 - 9 5 - - WSW 0,0
07.07.2020 05:00:00 10,2 9,2 - 11 6 - - WSW 0,0
07.07.2020 04:00:00 9,9 9,0 - 8 4 - - SSW 0,0
07.07.2020 03:00:00 10,3 9,5 - 8 4 - - WSW 0,2
07.07.2020 02:00:00 10,2 9,5 - 15 8 - - W 1,2
07.07.2020 01:00:00 11,6 8,2 - 15 8 - - W 0,0
07.07.2020 00:00:00 11,6 8,6 - 16 9 - - W 0,0
06.07.2020 23:00:00 11,8 8,7 - 18 10 - - W 0,0
06.07.2020 22:00:00 11,5 9,1 - 15 8 - - W 0,0
06.07.2020 21:00:00 11,8 8,5 - 24 13 - - W 0,0
06.07.2020 20:00:00 12,5 8,4 - 24 13 - - W 0,0
06.07.2020 19:00:00 12,0 9,4 - 16 9 52 28 W 0,0
06.07.2020 18:00:00 13,0 7,5 - 22 12 - - W 0,0
06.07.2020 17:00:00 12,9 7,7 - 16 9 - - W 0,0
06.07.2020 16:00:00 12,3 7,6 - 21 11 - - W 0,0
06.07.2020 15:00:00 12,8 8,4 - 24 13 - - W 0,0
06.07.2020 14:00:00 14,4 7,2 - 24 13 - - W 0,0
06.07.2020 13:00:00 13,5 8,0 - 18 10 - - W 0,0
06.07.2020 12:00:00 14,0 7,4 - 18 10 - - WNW 0,0
06.07.2020 11:00:00 12,6 7,4 - 18 10 - - WNW 0,0
06.07.2020 10:00:00 13,2 6,0 14,2 24 13 - - WNW 0,0
06.07.2020 09:00:00 12,6 8,6 - 18 10 - - WNW 0,0
06.07.2020 08:00:00 11,8 8,1 - 16 9 - - WNW 0,0
06.07.2020 07:00:00 11,6 8,8 - 9 5 - - W 0,0
06.07.2020 06:00:00 11,6 8,6 - 18 10 - - WNW 0,0
06.07.2020 05:00:00 11,4 7,9 - 16 9 - - WNW 0,0
06.07.2020 04:00:00 11,3 9,6 - 15 8 - - W 0,0
06.07.2020 03:00:00 11,0 9,0 - 21 11 - - WNW 0,0
06.07.2020 02:00:00 10,8 9,1 - 13 7 - - WNW 0,0
06.07.2020 01:00:00 11,0 10,5 - 18 10 - - WSW 1,0
06.07.2020 00:00:00 10,5 9,7 - 22 12 46 25 W 0,6
05.07.2020 23:00:00 11,1 9,3 - 37 20 48 26 W 0,0
05.07.2020 22:00:00 10,7 9,6 - 15 8 - - WNW 3,8
05.07.2020 21:00:00 11,6 9,4 - 26 14 - - W 0,0
05.07.2020 20:00:00 12,0 9,3 - 28 15 - - W 0,4
05.07.2020 19:00:00 12,1 9,2 - 26 14 - - W 0,2
05.07.2020 18:00:00 11,5 10,3 - 18 10 - - W 1,0
05.07.2020 17:00:00 11,8 10,0 - 13 7 - - SW 0,6
05.07.2020 16:00:00 10,8 9,7 - 11 6 - - WSW 1,2
05.07.2020 15:00:00 11,3 10,6 - 18 10 - - WSW 4,2
05.07.2020 14:00:00 13,4 12,1 - 21 11 - - SW 0,8
05.07.2020 13:00:00 12,0 11,4 - 16 9 - - WSW 2,6
05.07.2020 12:00:00 11,4 9,9 - 26 14 46 25 WSW 0,6
05.07.2020 11:00:00 11,4 9,9 - 26 14 - - WSW 1,0
05.07.2020 10:00:00 12,4 8,9 14,7 21 11 - - WSW 0,0
05.07.2020 09:00:00 10,5 9,1 - 26 14 - - WSW 1,2
05.07.2020 08:00:00 10,6 9,2 - 13 7 - - SW 0,6
05.07.2020 07:00:00 10,8 9,6 - 18 10 - - W 0,0
05.07.2020 06:00:00 10,8 9,0 - 22 12 - - W 0,0
05.07.2020 05:00:00 10,9 9,8 - 18 10 - - W 0,0
05.07.2020 04:00:00 10,9 10,3 - 22 12 - - W 0,2
05.07.2020 03:00:00 12,2 11,9 - 18 10 - - SW 0,2
05.07.2020 02:00:00 11,8 11,6 - 11 6 - - WSW 0,4
05.07.2020 01:00:00 11,4 11,2 - 0 0 - - N 0,4
05.07.2020 00:00:00 11,0 10,8 - 9 5 - - NNE 1,4
04.07.2020 23:00:00 11,1 10,8 - 9 5 - - NNE 3,4
04.07.2020 22:00:00 11,6 11,1 - 13 7 - - ENE 3,0
04.07.2020 21:00:00 12,0 11,3 - 9 5 - - E 1,8
04.07.2020 20:00:00 12,3 10,8 - 0 0 - - N 0,8
04.07.2020 19:00:00 12,9 10,3 - 8 4 - - WSW 0,0
04.07.2020 18:00:00 13,7 10,3 - 9 5 - - SW 0,0
04.07.2020 17:00:00 14,6 10,6 - 18 10 - - SW 0,0
04.07.2020 16:00:00 13,9 11,8 - 15 8 - - SW 0,0
04.07.2020 15:00:00 13,5 11,8 - 21 11 - - SW 0,0
04.07.2020 14:00:00 12,3 10,9 - 15 8 - - SW 0,0
04.07.2020 13:00:00 11,8 11,0 - 11 6 - - SW 0,0
04.07.2020 12:00:00 11,2 10,6 - 13 7 - - SW 0,2
04.07.2020 11:00:00 12,0 11,0 - 9 5 - - SSW 0,0
04.07.2020 10:00:00 11,6 10,7 14,7 5 3 - - S 0,6
04.07.2020 09:00:00 11,4 11,1 - 2 1 - - SSE 0,0
04.07.2020 08:00:00 11,1 10,9 - 2 1 - - E 0,0
04.07.2020 07:00:00 10,5 10,3 - 5 3 - - E 0,4
04.07.2020 06:00:00 10,0 9,7 - 8 4 - - ENE 0,0
04.07.2020 05:00:00 10,0 9,9 - 2 1 - - ESE 0,2
04.07.2020 04:00:00 9,5 9,3 - 4 2 - - SW 0,0
04.07.2020 03:00:00 9,1 8,8 - 2 1 - - E 0,0
04.07.2020 02:00:00 8,9 8,5 - 8 4 - - ENE 0,0
04.07.2020 01:00:00 9,4 8,9 - 5 3 - - SW 0,0
04.07.2020 00:00:00 9,7 9,1 - 5 3 - - SSW 0,0
03.07.2020 23:00:00 10,1 9,4 - 8 4 - - SW 0,0
03.07.2020 22:00:00 11,0 9,7 - 5 3 - - SSW 0,0
03.07.2020 21:00:00 11,9 10,7 - 9 5 - - SW 0,0
03.07.2020 20:00:00 12,2 10,7 - 11 6 - - SW 0,0
03.07.2020 19:00:00 12,5 10,9 - 9 5 - - SW 0,0
03.07.2020 18:00:00 11,4 10,6 - 9 5 - - W 0,2
03.07.2020 17:00:00 11,3 10,5 - 11 6 - - SSW 0,6
03.07.2020 16:00:00 11,1 10,3 - 9 5 - - WSW 2,4

tt = Température de l'air
td = dewpoint
tt -20cm = Température de l'air -20cm
ff = Vitesse du vent
fx = gusts
dd = Direction du vent
rr = Quantités de précipitations

stations d'obs. à proximité